California, Maryland
Current Conditions -  °F | °C
As of 4:02 PM on Tuesday 27 Jan 2015 (Local Time) from K2W6 Reporting Station
Scattered Clouds Scattered Clouds  
Wind Chill: 24°   Ceiling: Unl
Heat Index: 32°   Visibility: 10mi
Dew Point: 23°   Wind: 10mph
Humidity: 69%   Direction: 280°W
Pressure: 29.8"   Gusts: 17mph
Location:  38.3°N, 76.52°W
Report Text: K2W6 272102Z AUTO 28009G15KT 260V330 10SM SCT026 00/M05 A2980 RMK AO1
Loading
Personal Weather Stations






























Interactive Weather Map New forecast layout! Learn more

10-Day Weather Forecast

Advertisements
Track Severe Weather on mobile